KAGO/AGO METAR and TAF weather

Enter ICAO airport designator
Station Type Date Time Source
KAGO METAR 2022/10/06 20:35 UTC NOAA

KAGO 062035Z AUTO 31004KT 10SM CLR 31/11 A3006 RMK A01


Station Type Date Time Source
KAGO Decoded METAR 2022/10/06 20:35 UTC NOAA

Station name not available
Oct 06, 2022 - 04:35 PM EDT / 2022.10.06 2035 UTC
Wind: from the NW (310 degrees) at 5 MPH (4 KT):0
Visibility: 10 mile(s):0
Sky conditions: clear
Temperature: 87 F (31 C)
Dew Point: 51 F (11 C)
Relative Humidity: 29%
Pressure (altimeter): 30.06 in. Hg (1017 hPa)
ob: KAGO 062035Z AUTO 31004KT 10SM CLR 31/11 A3006 RMK A01
cycle: 20

Station Type Date Time Source
KAGO TAF UTC NOAA

Error!

Example: see airport list